sensor_id;sensor_type;location;lat;lon;timestamp;P1;durP1;ratioP1;P2;durP2;ratioP2
68923;SDS011;55961;52.156;20.942;2022-09-21T00:00:22;7.87;;;4.37;;
68923;SDS011;55961;52.156;20.942;2022-09-21T00:03:09;9.35;;;4.15;;
68923;SDS011;55961;52.156;20.942;2022-09-21T00:05:35;9.65;;;4.45;;
68923;SDS011;55961;52.156;20.942;2022-09-21T00:08:03;8.35;;;4.07;;
68923;SDS011;55961;52.156;20.942;2022-09-21T00:10:31;9.85;;;4.20;;
68923;SDS011;55961;52.156;20.942;2022-09-21T00:12:57;8.60;;;4.57;;
68923;SDS011;55961;52.156;20.942;2022-09-21T00:15:24;10.63;;;4.40;;
68923;SDS011;55961;52.156;20.942;2022-09-21T00:17:51;9.95;;;4.40;;
68923;SDS011;55961;52.156;20.942;2022-09-21T00:20:18;10.18;;;4.45;;
68923;SDS011;55961;52.156;20.942;2022-09-21T00:22:46;9.50;;;4.38;;
68923;SDS011;55961;52.156;20.942;2022-09-21T00:25:13;8.80;;;4.83;;
68923;SDS011;55961;52.156;20.942;2022-09-21T00:27:39;8.70;;;4.55;;
68923;SDS011;55961;52.156;20.942;2022-09-21T00:30:06;8.68;;;4.38;;
68923;SDS011;55961;52.156;20.942;2022-09-21T00:32:33;8.48;;;4.30;;
68923;SDS011;55961;52.156;20.942;2022-09-21T00:35:01;9.98;;;4.38;;
68923;SDS011;55961;52.156;20.942;2022-09-21T00:37:28;7.20;;;4.10;;
68923;SDS011;55961;52.156;20.942;2022-09-21T00:39:54;9.63;;;4.32;;
68923;SDS011;55961;52.156;20.942;2022-09-21T00:42:22;9.88;;;4.35;;
68923;SDS011;55961;52.156;20.942;2022-09-21T00:44:50;8.07;;;4.25;;
68923;SDS011;55961;52.156;20.942;2022-09-21T00:47:18;10.23;;;4.03;;
68923;SDS011;55961;52.156;20.942;2022-09-21T00:50:01;7.97;;;3.97;;
68923;SDS011;55961;52.156;20.942;2022-09-21T00:52:31;11.23;;;4.28;;
68923;SDS011;55961;52.156;20.942;2022-09-21T00:55:03;9.07;;;4.38;;
68923;SDS011;55961;52.156;20.942;2022-09-21T00:57:46;8.98;;;4.07;;
68923;SDS011;55961;52.156;20.942;2022-09-21T01:00:16;9.73;;;4.43;;
68923;SDS011;55961;52.156;20.942;2022-09-21T01:02:42;9.13;;;4.33;;
68923;SDS011;55961;52.156;20.942;2022-09-21T01:05:10;9.75;;;4.30;;
68923;SDS011;55961;52.156;20.942;2022-09-21T01:07:38;10.63;;;4.15;;
68923;SDS011;55961;52.156;20.942;2022-09-21T01:10:08;12.05;;;3.88;;
68923;SDS011;55961;52.156;20.942;2022-09-21T01:15:44;9.38;;;3.92;;
68923;SDS011;55961;52.156;20.942;2022-09-21T01:31:59;8.60;;;3.75;;
68923;SDS011;55961;52.156;20.942;2022-09-21T01:34:32;8.93;;;4.25;;
68923;SDS011;55961;52.156;20.942;2022-09-21T01:37:02;9.05;;;4.38;;
68923;SDS011;55961;52.156;20.942;2022-09-21T01:39:33;8.87;;;4.53;;
68923;SDS011;55961;52.156;20.942;2022-09-21T01:42:02;8.68;;;4.32;;
68923;SDS011;55961;52.156;20.942;2022-09-21T01:44:31;9.43;;;4.47;;
68923;SDS011;55961;52.156;20.942;2022-09-21T01:47:00;11.75;;;4.90;;
68923;SDS011;55961;52.156;20.942;2022-09-21T01:49:33;10.98;;;5.15;;
68923;SDS011;55961;52.156;20.942;2022-09-21T01:52:22;9.37;;;4.83;;
68923;SDS011;55961;52.156;20.942;2022-09-21T01:55:04;8.95;;;4.80;;
68923;SDS011;55961;52.156;20.942;2022-09-21T01:57:39;8.68;;;5.07;;
68923;SDS011;55961;52.156;20.942;2022-09-21T02:00:14;10.48;;;4.90;;
68923;SDS011;55961;52.156;20.942;2022-09-21T02:02:54;11.32;;;4.95;;
68923;SDS011;55961;52.156;20.942;2022-09-21T02:05:27;10.57;;;4.90;;
68923;SDS011;55961;52.156;20.942;2022-09-21T02:07:57;13.25;;;5.13;;
68923;SDS011;55961;52.156;20.942;2022-09-21T02:13:01;9.45;;;5.20;;
68923;SDS011;55961;52.156;20.942;2022-09-21T02:15:31;12.25;;;5.15;;
68923;SDS011;55961;52.156;20.942;2022-09-21T02:20:59;9.43;;;4.55;;
68923;SDS011;55961;52.156;20.942;2022-09-21T02:23:36;10.32;;;4.68;;
68923;SDS011;55961;52.156;20.942;2022-09-21T02:26:28;10.80;;;4.90;;
68923;SDS011;55961;52.156;20.942;2022-09-21T02:29:04;10.90;;;5.07;;
68923;SDS011;55961;52.156;20.942;2022-09-21T02:31:41;11.07;;;4.50;;
68923;SDS011;55961;52.156;20.942;2022-09-21T02:34:19;9.95;;;4.68;;
68923;SDS011;55961;52.156;20.942;2022-09-21T02:37:03;8.57;;;4.55;;
68923;SDS011;55961;52.156;20.942;2022-09-21T02:39:39;9.00;;;4.50;;
68923;SDS011;55961;52.156;20.942;2022-09-21T02:42:18;9.05;;;4.80;;
68923;SDS011;55961;52.156;20.942;2022-09-21T02:45:02;10.07;;;5.37;;
68923;SDS011;55961;52.156;20.942;2022-09-21T02:48:15;15.27;;;5.78;;
68923;SDS011;55961;52.156;20.942;2022-09-21T02:50:27;17.88;;;6.63;;
68923;SDS011;55961;52.156;20.942;2022-09-21T02:52:59;12.73;;;5.60;;
68923;SDS011;55961;52.156;20.942;2022-09-21T02:55:35;11.38;;;6.30;;
68923;SDS011;55961;52.156;20.942;2022-09-21T02:58:03;14.77;;;6.40;;
68923;SDS011;55961;52.156;20.942;2022-09-21T03:00:33;12.23;;;5.80;;
68923;SDS011;55961;52.156;20.942;2022-09-21T03:03:00;10.15;;;5.45;;
68923;SDS011;55961;52.156;20.942;2022-09-21T03:05:42;13.35;;;6.35;;
68923;SDS011;55961;52.156;20.942;2022-09-21T03:08:09;14.73;;;6.93;;
68923;SDS011;55961;52.156;20.942;2022-09-21T03:10:35;13.87;;;7.20;;
68923;SDS011;55961;52.156;20.942;2022-09-21T03:13:04;14.90;;;7.03;;
68923;SDS011;55961;52.156;20.942;2022-09-21T03:15:30;14.65;;;7.22;;
68923;SDS011;55961;52.156;20.942;2022-09-21T03:17:56;12.93;;;7.00;;
68923;SDS011;55961;52.156;20.942;2022-09-21T03:20:22;12.65;;;6.95;;
68923;SDS011;55961;52.156;20.942;2022-09-21T03:22:48;13.18;;;7.47;;
68923;SDS011;55961;52.156;20.942;2022-09-21T03:25:14;14.20;;;7.10;;
68923;SDS011;55961;52.156;20.942;2022-09-21T03:27:39;13.77;;;7.20;;
68923;SDS011;55961;52.156;20.942;2022-09-21T03:30:07;14.43;;;7.53;;
68923;SDS011;55961;52.156;20.942;2022-09-21T03:32:33;13.07;;;6.83;;
68923;SDS011;55961;52.156;20.942;2022-09-21T03:34:58;16.10;;;7.65;;
68923;SDS011;55961;52.156;20.942;2022-09-21T03:37:24;18.33;;;8.77;;
68923;SDS011;55961;52.156;20.942;2022-09-21T03:39:50;12.63;;;7.10;;
68923;SDS011;55961;52.156;20.942;2022-09-21T03:42:16;15.70;;;8.57;;
68923;SDS011;55961;52.156;20.942;2022-09-21T03:44:42;14.82;;;7.82;;
68923;SDS011;55961;52.156;20.942;2022-09-21T03:47:08;14.53;;;8.17;;
68923;SDS011;55961;52.156;20.942;2022-09-21T03:49:33;13.20;;;7.20;;
68923;SDS011;55961;52.156;20.942;2022-09-21T03:51:59;13.90;;;7.73;;
68923;SDS011;55961;52.156;20.942;2022-09-21T03:54:25;15.35;;;7.28;;
68923;SDS011;55961;52.156;20.942;2022-09-21T03:56:51;14.32;;;7.90;;
68923;SDS011;55961;52.156;20.942;2022-09-21T03:59:17;14.32;;;6.97;;
68923;SDS011;55961;52.156;20.942;2022-09-21T04:01:43;14.43;;;7.23;;
68923;SDS011;55961;52.156;20.942;2022-09-21T04:04:08;12.77;;;6.63;;
68923;SDS011;55961;52.156;20.942;2022-09-21T04:06:34;13.43;;;6.90;;
68923;SDS011;55961;52.156;20.942;2022-09-21T04:09:00;18.20;;;9.17;;
68923;SDS011;55961;52.156;20.942;2022-09-21T04:11:28;15.57;;;8.07;;
68923;SDS011;55961;52.156;20.942;2022-09-21T04:13:57;14.32;;;8.02;;
68923;SDS011;55961;52.156;20.942;2022-09-21T04:16:23;13.77;;;6.70;;
68923;SDS011;55961;52.156;20.942;2022-09-21T04:18:50;15.57;;;7.45;;
68923;SDS011;55961;52.156;20.942;2022-09-21T04:21:18;14.88;;;7.32;;
68923;SDS011;55961;52.156;20.942;2022-09-21T04:23:44;16.50;;;7.50;;
68923;SDS011;55961;52.156;20.942;2022-09-21T04:29:05;14.90;;;7.40;;
68923;SDS011;55961;52.156;20.942;2022-09-21T04:31:31;13.20;;;6.97;;
68923;SDS011;55961;52.156;20.942;2022-09-21T04:33:57;20.45;;;8.93;;
68923;SDS011;55961;52.156;20.942;2022-09-21T04:36:24;12.27;;;6.30;;
68923;SDS011;55961;52.156;20.942;2022-09-21T04:38:55;13.27;;;7.70;;
68923;SDS011;55961;52.156;20.942;2022-09-21T04:41:22;15.50;;;7.75;;
68923;SDS011;55961;52.156;20.942;2022-09-21T04:43:48;15.45;;;8.20;;
68923;SDS011;55961;52.156;20.942;2022-09-21T04:46:15;13.95;;;7.35;;
68923;SDS011;55961;52.156;20.942;2022-09-21T04:48:42;15.98;;;8.38;;
68923;SDS011;55961;52.156;20.942;2022-09-21T04:51:09;16.60;;;8.20;;
68923;SDS011;55961;52.156;20.942;2022-09-21T04:53:36;14.70;;;7.93;;
68923;SDS011;55961;52.156;20.942;2022-09-21T04:56:04;15.82;;;8.02;;
68923;SDS011;55961;52.156;20.942;2022-09-21T04:58:31;16.77;;;8.40;;
68923;SDS011;55961;52.156;20.942;2022-09-21T05:01:00;16.42;;;7.38;;
68923;SDS011;55961;52.156;20.942;2022-09-21T05:03:26;17.20;;;8.63;;
68923;SDS011;55961;52.156;20.942;2022-09-21T05:05:53;16.50;;;8.48;;
68923;SDS011;55961;52.156;20.942;2022-09-21T05:08:20;15.88;;;8.20;;
68923;SDS011;55961;52.156;20.942;2022-09-21T05:11:08;15.45;;;8.63;;
68923;SDS011;55961;52.156;20.942;2022-09-21T05:13:40;14.03;;;7.77;;
68923;SDS011;55961;52.156;20.942;2022-09-21T05:16:06;14.65;;;7.25;;
68923;SDS011;55961;52.156;20.942;2022-09-21T05:18:33;14.25;;;7.05;;
68923;SDS011;55961;52.156;20.942;2022-09-21T05:21:00;12.60;;;7.13;;
68923;SDS011;55961;52.156;20.942;2022-09-21T05:23:27;12.88;;;7.25;;
68923;SDS011;55961;52.156;20.942;2022-09-21T05:25:54;12.47;;;7.70;;
68923;SDS011;55961;52.156;20.942;2022-09-21T05:28:21;15.32;;;7.70;;
68923;SDS011;55961;52.156;20.942;2022-09-21T05:30:51;12.05;;;7.07;;
68923;SDS011;55961;52.156;20.942;2022-09-21T05:33:25;14.77;;;7.88;;
68923;SDS011;55961;52.156;20.942;2022-09-21T05:36:03;14.38;;;7.30;;
68923;SDS011;55961;52.156;20.942;2022-09-21T05:38:51;12.80;;;6.63;;
68923;SDS011;55961;52.156;20.942;2022-09-21T05:41:17;14.25;;;6.90;;
68923;SDS011;55961;52.156;20.942;2022-09-21T05:43:43;14.40;;;5.95;;
68923;SDS011;55961;52.156;20.942;2022-09-21T05:49:04;13.13;;;6.90;;
68923;SDS011;55961;52.156;20.942;2022-09-21T05:51:47;14.07;;;7.07;;
68923;SDS011;55961;52.156;20.942;2022-09-21T06:00:00;11.77;;;6.65;;
68923;SDS011;55961;52.156;20.942;2022-09-21T06:05:15;13.07;;;6.73;;
68923;SDS011;55961;52.156;20.942;2022-09-21T06:07:41;13.50;;;6.40;;
68923;SDS011;55961;52.156;20.942;2022-09-21T06:10:11;11.30;;;6.43;;
68923;SDS011;55961;52.156;20.942;2022-09-21T06:12:37;12.20;;;6.70;;
68923;SDS011;55961;52.156;20.942;2022-09-21T06:15:05;14.83;;;5.83;;
68923;SDS011;55961;52.156;20.942;2022-09-21T06:17:32;10.80;;;6.38;;
68923;SDS011;55961;52.156;20.942;2022-09-21T06:19:57;11.45;;;5.20;;
68923;SDS011;55961;52.156;20.942;2022-09-21T06:22:24;11.45;;;5.63;;
68923;SDS011;55961;52.156;20.942;2022-09-21T06:24:49;10.07;;;5.40;;
68923;SDS011;55961;52.156;20.942;2022-09-21T06:27:15;10.85;;;5.55;;
68923;SDS011;55961;52.156;20.942;2022-09-21T06:29:41;13.48;;;5.53;;
68923;SDS011;55961;52.156;20.942;2022-09-21T06:32:07;10.33;;;6.07;;
68923;SDS011;55961;52.156;20.942;2022-09-21T06:34:33;11.10;;;5.85;;
68923;SDS011;55961;52.156;20.942;2022-09-21T06:36:59;11.57;;;5.60;;
68923;SDS011;55961;52.156;20.942;2022-09-21T06:39:25;13.50;;;5.77;;
68923;SDS011;55961;52.156;20.942;2022-09-21T06:41:51;9.65;;;5.03;;
68923;SDS011;55961;52.156;20.942;2022-09-21T06:44:17;8.97;;;4.67;;
68923;SDS011;55961;52.156;20.942;2022-09-21T06:46:42;8.68;;;4.15;;
68923;SDS011;55961;52.156;20.942;2022-09-21T06:49:08;10.48;;;4.40;;
68923;SDS011;55961;52.156;20.942;2022-09-21T06:51:34;8.07;;;4.23;;
68923;SDS011;55961;52.156;20.942;2022-09-21T06:54:00;6.43;;;3.22;;
68923;SDS011;55961;52.156;20.942;2022-09-21T06:56:26;9.15;;;3.83;;
68923;SDS011;55961;52.156;20.942;2022-09-21T06:58:52;8.48;;;4.10;;
68923;SDS011;55961;52.156;20.942;2022-09-21T07:01:19;9.27;;;5.00;;
68923;SDS011;55961;52.156;20.942;2022-09-21T07:03:48;7.57;;;3.90;;
68923;SDS011;55961;52.156;20.942;2022-09-21T07:06:15;8.10;;;3.50;;
68923;SDS011;55961;52.156;20.942;2022-09-21T07:08:45;7.07;;;3.40;;
68923;SDS011;55961;52.156;20.942;2022-09-21T07:11:11;7.38;;;3.20;;
68923;SDS011;55961;52.156;20.942;2022-09-21T07:13:44;6.82;;;3.25;;
68923;SDS011;55961;52.156;20.942;2022-09-21T07:16:20;6.10;;;3.03;;
68923;SDS011;55961;52.156;20.942;2022-09-21T07:18:51;8.50;;;2.80;;
68923;SDS011;55961;52.156;20.942;2022-09-21T07:21:19;5.68;;;2.22;;
68923;SDS011;55961;52.156;20.942;2022-09-21T07:23:46;6.70;;;2.78;;
68923;SDS011;55961;52.156;20.942;2022-09-21T07:26:12;5.18;;;2.08;;
68923;SDS011;55961;52.156;20.942;2022-09-21T07:28:38;5.37;;;2.30;;
68923;SDS011;55961;52.156;20.942;2022-09-21T07:31:08;4.55;;;2.60;;
68923;SDS011;55961;52.156;20.942;2022-09-21T07:33:38;7.25;;;2.67;;
68923;SDS011;55961;52.156;20.942;2022-09-21T07:36:04;5.88;;;2.33;;
68923;SDS011;55961;52.156;20.942;2022-09-21T07:38:35;6.20;;;2.53;;
68923;SDS011;55961;52.156;20.942;2022-09-21T07:41:04;5.80;;;2.17;;
68923;SDS011;55961;52.156;20.942;2022-09-21T07:43:37;6.53;;;2.33;;
68923;SDS011;55961;52.156;20.942;2022-09-21T07:46:06;5.80;;;2.40;;
68923;SDS011;55961;52.156;20.942;2022-09-21T07:48:34;4.32;;;1.80;;
68923;SDS011;55961;52.156;20.942;2022-09-21T07:51:00;4.30;;;1.60;;
68923;SDS011;55961;52.156;20.942;2022-09-21T07:53:31;4.68;;;1.80;;
68923;SDS011;55961;52.156;20.942;2022-09-21T07:56:05;3.65;;;1.60;;
68923;SDS011;55961;52.156;20.942;2022-09-21T07:58:39;6.30;;;1.48;;
68923;SDS011;55961;52.156;20.942;2022-09-21T08:01:24;3.17;;;1.10;;
68923;SDS011;55961;52.156;20.942;2022-09-21T08:03:51;3.80;;;1.38;;
68923;SDS011;55961;52.156;20.942;2022-09-21T08:06:19;4.15;;;1.50;;
68923;SDS011;55961;52.156;20.942;2022-09-21T08:08:46;3.28;;;1.40;;
68923;SDS011;55961;52.156;20.942;2022-09-21T08:11:15;3.95;;;1.60;;
68923;SDS011;55961;52.156;20.942;2022-09-21T08:13:42;4.87;;;1.50;;
68923;SDS011;55961;52.156;20.942;2022-09-21T08:16:08;5.10;;;1.55;;
68923;SDS011;55961;52.156;20.942;2022-09-21T08:18:38;5.05;;;1.90;;
68923;SDS011;55961;52.156;20.942;2022-09-21T08:21:05;3.80;;;1.30;;
68923;SDS011;55961;52.156;20.942;2022-09-21T08:23:32;4.35;;;1.58;;
68923;SDS011;55961;52.156;20.942;2022-09-21T08:25:59;3.20;;;1.40;;
68923;SDS011;55961;52.156;20.942;2022-09-21T08:28:27;3.40;;;1.15;;
68923;SDS011;55961;52.156;20.942;2022-09-21T08:30:57;2.50;;;1.00;;
68923;SDS011;55961;52.156;20.942;2022-09-21T08:33:24;2.70;;;1.10;;
68923;SDS011;55961;52.156;20.942;2022-09-21T08:35:53;3.37;;;1.00;;
68923;SDS011;55961;52.156;20.942;2022-09-21T08:38:19;3.33;;;1.25;;
68923;SDS011;55961;52.156;20.942;2022-09-21T08:40:46;3.15;;;1.58;;
68923;SDS011;55961;52.156;20.942;2022-09-21T08:43:13;2.67;;;0.80;;
68923;SDS011;55961;52.156;20.942;2022-09-21T08:45:46;4.57;;;0.80;;
68923;SDS011;55961;52.156;20.942;2022-09-21T08:48:19;2.70;;;0.90;;
68923;SDS011;55961;52.156;20.942;2022-09-21T08:51:01;2.55;;;1.40;;
68923;SDS011;55961;52.156;20.942;2022-09-21T08:53:37;2.45;;;1.13;;
68923;SDS011;55961;52.156;20.942;2022-09-21T08:56:09;4.13;;;0.95;;
68923;SDS011;55961;52.156;20.942;2022-09-21T08:58:36;3.50;;;1.20;;
68923;SDS011;55961;52.156;20.942;2022-09-21T09:08:58;2.65;;;1.00;;
68923;SDS011;55961;52.156;20.942;2022-09-21T09:19:49;4.43;;;0.88;;
68923;SDS011;55961;52.156;20.942;2022-09-21T09:22:55;2.72;;;0.82;;
68923;SDS011;55961;52.156;20.942;2022-09-21T09:25:29;3.45;;;1.10;;
68923;SDS011;55961;52.156;20.942;2022-09-21T09:28:07;2.23;;;0.70;;
68923;SDS011;55961;52.156;20.942;2022-09-21T09:30:45;3.75;;;0.98;;
68923;SDS011;55961;52.156;20.942;2022-09-21T09:33:19;6.03;;;1.00;;
68923;SDS011;55961;52.156;20.942;2022-09-21T09:35:51;3.33;;;1.20;;
68923;SDS011;55961;52.156;20.942;2022-09-21T09:38:35;4.80;;;1.10;;
68923;SDS011;55961;52.156;20.942;2022-09-21T09:41:29;2.77;;;0.93;;
68923;SDS011;55961;52.156;20.942;2022-09-21T09:44:13;5.13;;;1.10;;
68923;SDS011;55961;52.156;20.942;2022-09-21T09:52:44;2.70;;;1.08;;
68923;SDS011;55961;52.156;20.942;2022-09-21T09:55:24;2.60;;;0.80;;
68923;SDS011;55961;52.156;20.942;2022-09-21T09:57:56;3.67;;;1.27;;
68923;SDS011;55961;52.156;20.942;2022-09-21T10:00:23;3.10;;;1.08;;
68923;SDS011;55961;52.156;20.942;2022-09-21T10:02:55;2.92;;;0.90;;
68923;SDS011;55961;52.156;20.942;2022-09-21T10:05:32;2.57;;;0.90;;
68923;SDS011;55961;52.156;20.942;2022-09-21T10:08:00;2.35;;;0.73;;
68923;SDS011;55961;52.156;20.942;2022-09-21T10:15:39;2.50;;;1.30;;
68923;SDS011;55961;52.156;20.942;2022-09-21T10:18:15;2.53;;;0.90;;
68923;SDS011;55961;52.156;20.942;2022-09-21T10:21:00;2.28;;;0.93;;
68923;SDS011;55961;52.156;20.942;2022-09-21T10:23:32;2.35;;;0.90;;
68923;SDS011;55961;52.156;20.942;2022-09-21T10:28:53;3.33;;;1.08;;
68923;SDS011;55961;52.156;20.942;2022-09-21T10:31:22;4.80;;;0.90;;
68923;SDS011;55961;52.156;20.942;2022-09-21T10:33:52;2.83;;;0.90;;
68923;SDS011;55961;52.156;20.942;2022-09-21T10:36:30;2.47;;;1.05;;
68923;SDS011;55961;52.156;20.942;2022-09-21T10:39:09;3.47;;;0.90;;
68923;SDS011;55961;52.156;20.942;2022-09-21T10:41:36;1.98;;;0.70;;
68923;SDS011;55961;52.156;20.942;2022-09-21T10:44:02;1.70;;;0.80;;
68923;SDS011;55961;52.156;20.942;2022-09-21T10:46:35;2.65;;;0.57;;
68923;SDS011;55961;52.156;20.942;2022-09-21T10:49:01;3.40;;;0.82;;
68923;SDS011;55961;52.156;20.942;2022-09-21T10:51:27;3.25;;;0.70;;
68923;SDS011;55961;52.156;20.942;2022-09-21T10:53:55;3.65;;;1.00;;
68923;SDS011;55961;52.156;20.942;2022-09-21T10:56:22;2.13;;;0.73;;
68923;SDS011;55961;52.156;20.942;2022-09-21T11:01:41;2.85;;;0.95;;
68923;SDS011;55961;52.156;20.942;2022-09-21T11:04:11;3.05;;;0.80;;
68923;SDS011;55961;52.156;20.942;2022-09-21T11:06:48;1.67;;;0.70;;
68923;SDS011;55961;52.156;20.942;2022-09-21T11:15:15;3.28;;;0.80;;
68923;SDS011;55961;52.156;20.942;2022-09-21T11:20:56;3.92;;;1.08;;
68923;SDS011;55961;52.156;20.942;2022-09-21T11:39:20;1.52;;;0.50;;
68923;SDS011;55961;52.156;20.942;2022-09-21T11:41:58;3.25;;;0.65;;
68923;SDS011;55961;52.156;20.942;2022-09-21T11:44:44;3.50;;;0.90;;
68923;SDS011;55961;52.156;20.942;2022-09-21T11:49:59;5.68;;;1.50;;
68923;SDS011;55961;52.156;20.942;2022-09-21T11:53:12;3.78;;;1.02;;
68923;SDS011;55961;52.156;20.942;2022-09-21T12:01:41;3.20;;;0.80;;
68923;SDS011;55961;52.156;20.942;2022-09-21T12:05:04;2.15;;;0.80;;
68923;SDS011;55961;52.156;20.942;2022-09-21T12:13:21;4.97;;;0.80;;
68923;SDS011;55961;52.156;20.942;2022-09-21T12:16:02;3.10;;;0.87;;
68923;SDS011;55961;52.156;20.942;2022-09-21T12:18:47;3.92;;;0.90;;
68923;SDS011;55961;52.156;20.942;2022-09-21T12:21:39;4.28;;;1.05;;
68923;SDS011;55961;52.156;20.942;2022-09-21T12:24:20;2.42;;;0.60;;
68923;SDS011;55961;52.156;20.942;2022-09-21T12:27:00;3.65;;;1.30;;
68923;SDS011;55961;52.156;20.942;2022-09-21T12:34:59;2.55;;;0.70;;
68923;SDS011;55961;52.156;20.942;2022-09-21T12:37:52;1.90;;;0.60;;
68923;SDS011;55961;52.156;20.942;2022-09-21T12:40:27;2.72;;;0.93;;
68923;SDS011;55961;52.156;20.942;2022-09-21T12:43:06;1.97;;;0.60;;
68923;SDS011;55961;52.156;20.942;2022-09-21T12:45:41;5.72;;;1.02;;
68923;SDS011;55961;52.156;20.942;2022-09-21T12:51:19;4.28;;;0.47;;
68923;SDS011;55961;52.156;20.942;2022-09-21T12:53:58;1.73;;;0.40;;
68923;SDS011;55961;52.156;20.942;2022-09-21T12:59:21;1.48;;;0.50;;
68923;SDS011;55961;52.156;20.942;2022-09-21T13:09:58;2.40;;;0.80;;
68923;SDS011;55961;52.156;20.942;2022-09-21T13:12:32;3.10;;;1.02;;
68923;SDS011;55961;52.156;20.942;2022-09-21T13:15:11;2.53;;;0.80;;
68923;SDS011;55961;52.156;20.942;2022-09-21T13:17:56;2.63;;;0.60;;
68923;SDS011;55961;52.156;20.942;2022-09-21T13:20:31;2.15;;;0.50;;
68923;SDS011;55961;52.156;20.942;2022-09-21T13:22:59;1.53;;;0.40;;
68923;SDS011;55961;52.156;20.942;2022-09-21T13:25:27;1.52;;;0.50;;
68923;SDS011;55961;52.156;20.942;2022-09-21T13:30:39;2.95;;;0.50;;
68923;SDS011;55961;52.156;20.942;2022-09-21T13:38:55;2.97;;;0.57;;
68923;SDS011;55961;52.156;20.942;2022-09-21T13:41:28;4.88;;;1.13;;
68923;SDS011;55961;52.156;20.942;2022-09-21T13:49:11;2.83;;;0.70;;
68923;SDS011;55961;52.156;20.942;2022-09-21T13:52:01;2.95;;;0.63;;
68923;SDS011;55961;52.156;20.942;2022-09-21T13:57:29;3.92;;;0.80;;
68923;SDS011;55961;52.156;20.942;2022-09-21T14:02:38;3.73;;;1.10;;
68923;SDS011;55961;52.156;20.942;2022-09-21T14:10:47;5.55;;;1.48;;
68923;SDS011;55961;52.156;20.942;2022-09-21T14:13:27;4.60;;;1.30;;
68923;SDS011;55961;52.156;20.942;2022-09-21T14:18:52;3.08;;;1.63;;
68923;SDS011;55961;52.156;20.942;2022-09-21T14:21:19;3.33;;;1.02;;
68923;SDS011;55961;52.156;20.942;2022-09-21T14:29:23;4.87;;;1.27;;
68923;SDS011;55961;52.156;20.942;2022-09-21T14:31:58;2.67;;;1.00;;
68923;SDS011;55961;52.156;20.942;2022-09-21T14:34:29;3.05;;;0.70;;
68923;SDS011;55961;52.156;20.942;2022-09-21T14:37:02;4.63;;;0.90;;
68923;SDS011;55961;52.156;20.942;2022-09-21T14:39:39;3.83;;;0.70;;
68923;SDS011;55961;52.156;20.942;2022-09-21T14:42:11;3.83;;;0.82;;
68923;SDS011;55961;52.156;20.942;2022-09-21T14:44:41;9.30;;;0.80;;
68923;SDS011;55961;52.156;20.942;2022-09-21T14:52:56;4.13;;;1.02;;
68923;SDS011;55961;52.156;20.942;2022-09-21T15:00:52;2.90;;;0.90;;
68923;SDS011;55961;52.156;20.942;2022-09-21T15:05:55;4.20;;;1.08;;
68923;SDS011;55961;52.156;20.942;2022-09-21T15:11:29;5.05;;;1.05;;
68923;SDS011;55961;52.156;20.942;2022-09-21T15:16:37;5.63;;;2.10;;
68923;SDS011;55961;52.156;20.942;2022-09-21T15:21:42;2.72;;;1.05;;
68923;SDS011;55961;52.156;20.942;2022-09-21T15:24:15;2.40;;;0.73;;
68923;SDS011;55961;52.156;20.942;2022-09-21T15:27:09;4.93;;;1.10;;
68923;SDS011;55961;52.156;20.942;2022-09-21T15:29:40;3.03;;;1.30;;
68923;SDS011;55961;52.156;20.942;2022-09-21T15:37:39;3.20;;;1.20;;
68923;SDS011;55961;52.156;20.942;2022-09-21T15:40:13;7.90;;;2.60;;
68923;SDS011;55961;52.156;20.942;2022-09-21T15:42:40;5.00;;;1.53;;
68923;SDS011;55961;52.156;20.942;2022-09-21T15:45:26;3.55;;;1.10;;
68923;SDS011;55961;52.156;20.942;2022-09-21T15:47:54;3.88;;;1.50;;
68923;SDS011;55961;52.156;20.942;2022-09-21T15:50:20;4.00;;;1.00;;
68923;SDS011;55961;52.156;20.942;2022-09-21T15:52:49;3.97;;;1.02;;
68923;SDS011;55961;52.156;20.942;2022-09-21T15:55:19;2.67;;;0.73;;
68923;SDS011;55961;52.156;20.942;2022-09-21T15:57:49;2.80;;;0.73;;
68923;SDS011;55961;52.156;20.942;2022-09-21T16:00:22;4.88;;;0.75;;
68923;SDS011;55961;52.156;20.942;2022-09-21T16:02:58;3.85;;;0.70;;
68923;SDS011;55961;52.156;20.942;2022-09-21T16:05:46;2.92;;;1.00;;
68923;SDS011;55961;52.156;20.942;2022-09-21T16:08:18;3.57;;;0.80;;
68923;SDS011;55961;52.156;20.942;2022-09-21T16:14:00;3.05;;;0.80;;
68923;SDS011;55961;52.156;20.942;2022-09-21T16:22:49;3.33;;;0.83;;
68923;SDS011;55961;52.156;20.942;2022-09-21T16:28:01;2.28;;;0.70;;
68923;SDS011;55961;52.156;20.942;2022-09-21T16:38:58;4.35;;;0.90;;
68923;SDS011;55961;52.156;20.942;2022-09-21T16:41:31;3.88;;;0.80;;
68923;SDS011;55961;52.156;20.942;2022-09-21T16:44:00;3.80;;;0.75;;
68923;SDS011;55961;52.156;20.942;2022-09-21T16:46:27;3.83;;;0.50;;
68923;SDS011;55961;52.156;20.942;2022-09-21T16:48:55;1.97;;;0.43;;
68923;SDS011;55961;52.156;20.942;2022-09-21T16:51:24;2.38;;;0.65;;
68923;SDS011;55961;52.156;20.942;2022-09-21T16:53:51;2.63;;;1.02;;
68923;SDS011;55961;52.156;20.942;2022-09-21T16:56:17;4.95;;;0.80;;
68923;SDS011;55961;52.156;20.942;2022-09-21T16:58:44;5.25;;;1.85;;
68923;SDS011;55961;52.156;20.942;2022-09-21T17:01:11;6.50;;;4.60;;
68923;SDS011;55961;52.156;20.942;2022-09-21T17:03:39;5.10;;;2.53;;
68923;SDS011;55961;52.156;20.942;2022-09-21T17:06:16;7.45;;;2.45;;
68923;SDS011;55961;52.156;20.942;2022-09-21T17:08:43;11.68;;;5.88;;
68923;SDS011;55961;52.156;20.942;2022-09-21T17:11:13;4.63;;;1.88;;
68923;SDS011;55961;52.156;20.942;2022-09-21T17:13:48;8.90;;;3.07;;
68923;SDS011;55961;52.156;20.942;2022-09-21T17:16:16;10.63;;;6.55;;
68923;SDS011;55961;52.156;20.942;2022-09-21T17:18:43;8.57;;;5.30;;
68923;SDS011;55961;52.156;20.942;2022-09-21T17:21:10;8.50;;;3.55;;
68923;SDS011;55961;52.156;20.942;2022-09-21T17:23:37;8.75;;;3.75;;
68923;SDS011;55961;52.156;20.942;2022-09-21T17:26:03;7.87;;;3.40;;
68923;SDS011;55961;52.156;20.942;2022-09-21T17:28:43;5.75;;;1.98;;
68923;SDS011;55961;52.156;20.942;2022-09-21T17:31:12;7.13;;;2.22;;
68923;SDS011;55961;52.156;20.942;2022-09-21T17:33:42;4.73;;;1.73;;
68923;SDS011;55961;52.156;20.942;2022-09-21T17:36:13;6.60;;;2.67;;
68923;SDS011;55961;52.156;20.942;2022-09-21T17:38:40;4.88;;;2.45;;
68923;SDS011;55961;52.156;20.942;2022-09-21T17:47:23;8.27;;;3.40;;
68923;SDS011;55961;52.156;20.942;2022-09-21T17:49:53;8.70;;;3.70;;
68923;SDS011;55961;52.156;20.942;2022-09-21T17:52:21;10.05;;;4.18;;
68923;SDS011;55961;52.156;20.942;2022-09-21T17:55:07;9.25;;;4.90;;
68923;SDS011;55961;52.156;20.942;2022-09-21T17:58:20;9.00;;;4.57;;
68923;SDS011;55961;52.156;20.942;2022-09-21T18:03:16;7.65;;;3.30;;
68923;SDS011;55961;52.156;20.942;2022-09-21T18:05:45;9.70;;;4.00;;
68923;SDS011;55961;52.156;20.942;2022-09-21T18:08:11;8.65;;;3.67;;
68923;SDS011;55961;52.156;20.942;2022-09-21T18:10:38;10.65;;;4.95;;
68923;SDS011;55961;52.156;20.942;2022-09-21T18:21:17;14.82;;;7.20;;
68923;SDS011;55961;52.156;20.942;2022-09-21T18:23:51;11.43;;;6.38;;
68923;SDS011;55961;52.156;20.942;2022-09-21T18:26:22;10.50;;;5.20;;
68923;SDS011;55961;52.156;20.942;2022-09-21T18:28:48;12.18;;;5.25;;
68923;SDS011;55961;52.156;20.942;2022-09-21T18:44:55;15.98;;;8.02;;
68923;SDS011;55961;52.156;20.942;2022-09-21T18:50:35;13.30;;;7.38;;
68923;SDS011;55961;52.156;20.942;2022-09-21T18:56:14;11.48;;;5.40;;
68923;SDS011;55961;52.156;20.942;2022-09-21T18:58:41;11.65;;;5.30;;
68923;SDS011;55961;52.156;20.942;2022-09-21T19:01:09;6.93;;;3.90;;